sensor_id;sensor_type;location;lat;lon;timestamp;P1;durP1;ratioP1;P2;durP2;ratioP2
12925;SDS011;6529;50.566;9.774;2022-07-12T00:00:45;1.57;;;1.30;;
12925;SDS011;6529;50.566;9.774;2022-07-12T00:03:10;1.93;;;1.20;;
12925;SDS011;6529;50.566;9.774;2022-07-12T00:05:36;1.50;;;1.10;;
12925;SDS011;6529;50.566;9.774;2022-07-12T00:08:02;1.30;;;1.20;;
12925;SDS011;6529;50.566;9.774;2022-07-12T00:10:28;1.53;;;1.43;;
12925;SDS011;6529;50.566;9.774;2022-07-12T00:12:53;1.40;;;1.30;;
12925;SDS011;6529;50.566;9.774;2022-07-12T00:15:20;1.27;;;1.20;;
12925;SDS011;6529;50.566;9.774;2022-07-12T00:20:56;2.47;;;1.73;;
12925;SDS011;6529;50.566;9.774;2022-07-12T00:23:21;1.40;;;1.30;;
12925;SDS011;6529;50.566;9.774;2022-07-12T00:25:47;1.30;;;1.20;;
12925;SDS011;6529;50.566;9.774;2022-07-12T00:28:13;2.90;;;1.30;;
12925;SDS011;6529;50.566;9.774;2022-07-12T00:30:38;1.33;;;1.20;;
12925;SDS011;6529;50.566;9.774;2022-07-12T00:33:04;1.60;;;1.50;;
12925;SDS011;6529;50.566;9.774;2022-07-12T00:35:29;2.07;;;1.40;;
12925;SDS011;6529;50.566;9.774;2022-07-12T00:37:55;1.73;;;1.40;;
12925;SDS011;6529;50.566;9.774;2022-07-12T00:40:21;1.50;;;1.40;;
12925;SDS011;6529;50.566;9.774;2022-07-12T00:42:47;3.93;;;1.60;;
12925;SDS011;6529;50.566;9.774;2022-07-12T00:45:13;1.50;;;1.40;;
12925;SDS011;6529;50.566;9.774;2022-07-12T00:50:07;2.07;;;1.20;;
12925;SDS011;6529;50.566;9.774;2022-07-12T00:52:43;2.37;;;1.40;;
12925;SDS011;6529;50.566;9.774;2022-07-12T00:55:12;1.33;;;1.23;;
12925;SDS011;6529;50.566;9.774;2022-07-12T00:57:39;1.30;;;1.20;;
12925;SDS011;6529;50.566;9.774;2022-07-12T01:00:08;3.30;;;1.50;;
12925;SDS011;6529;50.566;9.774;2022-07-12T01:02:36;1.20;;;1.20;;
12925;SDS011;6529;50.566;9.774;2022-07-12T01:05:06;1.47;;;1.37;;
12925;SDS011;6529;50.566;9.774;2022-07-12T01:07:33;1.50;;;1.40;;
12925;SDS011;6529;50.566;9.774;2022-07-12T01:10:00;1.50;;;1.40;;
12925;SDS011;6529;50.566;9.774;2022-07-12T01:12:26;1.50;;;1.37;;
12925;SDS011;6529;50.566;9.774;2022-07-12T01:14:52;1.83;;;1.37;;
12925;SDS011;6529;50.566;9.774;2022-07-12T01:17:22;1.87;;;1.77;;
12925;SDS011;6529;50.566;9.774;2022-07-12T01:19:50;1.40;;;1.30;;
12925;SDS011;6529;50.566;9.774;2022-07-12T01:22:17;1.93;;;1.50;;
12925;SDS011;6529;50.566;9.774;2022-07-12T01:24:46;2.37;;;1.50;;
12925;SDS011;6529;50.566;9.774;2022-07-12T01:27:12;1.57;;;1.47;;
12925;SDS011;6529;50.566;9.774;2022-07-12T01:29:38;1.50;;;1.40;;
12925;SDS011;6529;50.566;9.774;2022-07-12T01:32:05;1.50;;;1.40;;
12925;SDS011;6529;50.566;9.774;2022-07-12T01:37:25;1.37;;;1.20;;
12925;SDS011;6529;50.566;9.774;2022-07-12T01:39:55;1.77;;;1.40;;
12925;SDS011;6529;50.566;9.774;2022-07-12T01:42:22;1.47;;;1.37;;
12925;SDS011;6529;50.566;9.774;2022-07-12T01:44:49;1.37;;;1.27;;
12925;SDS011;6529;50.566;9.774;2022-07-12T01:47:19;1.40;;;1.30;;
12925;SDS011;6529;50.566;9.774;2022-07-12T01:49:48;1.37;;;1.27;;
12925;SDS011;6529;50.566;9.774;2022-07-12T01:52:14;1.53;;;1.40;;
12925;SDS011;6529;50.566;9.774;2022-07-12T01:54:40;1.50;;;1.40;;
12925;SDS011;6529;50.566;9.774;2022-07-12T01:57:07;2.87;;;1.40;;
12925;SDS011;6529;50.566;9.774;2022-07-12T01:59:32;1.80;;;1.40;;
12925;SDS011;6529;50.566;9.774;2022-07-12T02:01:58;1.57;;;1.47;;
12925;SDS011;6529;50.566;9.774;2022-07-12T02:04:26;2.10;;;1.50;;
12925;SDS011;6529;50.566;9.774;2022-07-12T02:06:51;1.90;;;1.40;;
12925;SDS011;6529;50.566;9.774;2022-07-12T02:09:17;2.23;;;1.40;;
12925;SDS011;6529;50.566;9.774;2022-07-12T02:11:43;3.10;;;1.50;;
12925;SDS011;6529;50.566;9.774;2022-07-12T02:14:10;2.90;;;1.40;;
12925;SDS011;6529;50.566;9.774;2022-07-12T02:16:37;1.97;;;1.57;;
12925;SDS011;6529;50.566;9.774;2022-07-12T02:19:03;1.43;;;1.33;;
12925;SDS011;6529;50.566;9.774;2022-07-12T02:21:29;2.13;;;1.50;;
12925;SDS011;6529;50.566;9.774;2022-07-12T02:23:54;1.50;;;1.40;;
12925;SDS011;6529;50.566;9.774;2022-07-12T02:26:20;1.43;;;1.33;;
12925;SDS011;6529;50.566;9.774;2022-07-12T02:28:46;2.30;;;1.47;;
12925;SDS011;6529;50.566;9.774;2022-07-12T02:31:11;1.40;;;1.30;;
12925;SDS011;6529;50.566;9.774;2022-07-12T02:33:37;2.03;;;1.40;;
12925;SDS011;6529;50.566;9.774;2022-07-12T02:36:03;1.73;;;1.50;;
12925;SDS011;6529;50.566;9.774;2022-07-12T02:38:28;1.67;;;1.57;;
12925;SDS011;6529;50.566;9.774;2022-07-12T02:40:54;1.60;;;1.50;;
12925;SDS011;6529;50.566;9.774;2022-07-12T02:43:24;1.77;;;1.50;;
12925;SDS011;6529;50.566;9.774;2022-07-12T02:45:51;1.50;;;1.40;;
12925;SDS011;6529;50.566;9.774;2022-07-12T02:48:17;1.53;;;1.43;;
12925;SDS011;6529;50.566;9.774;2022-07-12T02:50:43;1.80;;;1.70;;
12925;SDS011;6529;50.566;9.774;2022-07-12T02:53:09;2.17;;;1.60;;
12925;SDS011;6529;50.566;9.774;2022-07-12T02:55:36;1.50;;;1.40;;
12925;SDS011;6529;50.566;9.774;2022-07-12T02:58:03;1.50;;;1.40;;
12925;SDS011;6529;50.566;9.774;2022-07-12T03:00:31;1.60;;;1.50;;
12925;SDS011;6529;50.566;9.774;2022-07-12T03:02:57;1.57;;;1.47;;
12925;SDS011;6529;50.566;9.774;2022-07-12T03:05:23;1.60;;;1.50;;
12925;SDS011;6529;50.566;9.774;2022-07-12T03:07:49;1.80;;;1.67;;
12925;SDS011;6529;50.566;9.774;2022-07-12T03:10:14;1.50;;;1.40;;
12925;SDS011;6529;50.566;9.774;2022-07-12T03:12:40;3.07;;;1.50;;
12925;SDS011;6529;50.566;9.774;2022-07-12T03:15:06;1.67;;;1.57;;
12925;SDS011;6529;50.566;9.774;2022-07-12T03:20:01;1.57;;;1.37;;
12925;SDS011;6529;50.566;9.774;2022-07-12T03:22:29;1.67;;;1.50;;
12925;SDS011;6529;50.566;9.774;2022-07-12T03:24:55;3.50;;;1.60;;
12925;SDS011;6529;50.566;9.774;2022-07-12T03:27:20;2.13;;;1.60;;
12925;SDS011;6529;50.566;9.774;2022-07-12T03:29:46;2.60;;;1.60;;
12925;SDS011;6529;50.566;9.774;2022-07-12T03:32:14;1.60;;;1.50;;
12925;SDS011;6529;50.566;9.774;2022-07-12T03:34:39;3.53;;;1.90;;
12925;SDS011;6529;50.566;9.774;2022-07-12T03:37:05;1.80;;;1.70;;
12925;SDS011;6529;50.566;9.774;2022-07-12T03:39:30;1.70;;;1.60;;
12925;SDS011;6529;50.566;9.774;2022-07-12T03:44:44;1.80;;;1.70;;
12925;SDS011;6529;50.566;9.774;2022-07-12T03:47:09;2.83;;;1.90;;
12925;SDS011;6529;50.566;9.774;2022-07-12T03:49:35;2.10;;;1.90;;
12925;SDS011;6529;50.566;9.774;2022-07-12T03:52:00;1.70;;;1.60;;
12925;SDS011;6529;50.566;9.774;2022-07-12T03:54:28;1.77;;;1.67;;
12925;SDS011;6529;50.566;9.774;2022-07-12T03:56:53;1.90;;;1.50;;
12925;SDS011;6529;50.566;9.774;2022-07-12T03:59:37;1.87;;;1.50;;
12925;SDS011;6529;50.566;9.774;2022-07-12T04:02:03;2.23;;;1.70;;
12925;SDS011;6529;50.566;9.774;2022-07-12T04:04:28;1.67;;;1.57;;
12925;SDS011;6529;50.566;9.774;2022-07-12T04:06:54;1.80;;;1.70;;
12925;SDS011;6529;50.566;9.774;2022-07-12T04:09:20;1.73;;;1.63;;
12925;SDS011;6529;50.566;9.774;2022-07-12T04:11:45;3.10;;;2.60;;
12925;SDS011;6529;50.566;9.774;2022-07-12T04:14:11;2.77;;;2.20;;
12925;SDS011;6529;50.566;9.774;2022-07-12T04:16:37;2.50;;;2.30;;
12925;SDS011;6529;50.566;9.774;2022-07-12T04:19:03;3.37;;;2.60;;
12925;SDS011;6529;50.566;9.774;2022-07-12T04:21:30;3.77;;;2.70;;
12925;SDS011;6529;50.566;9.774;2022-07-12T04:23:58;2.50;;;2.30;;
12925;SDS011;6529;50.566;9.774;2022-07-12T04:26:24;2.17;;;2.03;;
12925;SDS011;6529;50.566;9.774;2022-07-12T04:28:49;3.40;;;2.10;;
12925;SDS011;6529;50.566;9.774;2022-07-12T04:31:15;2.30;;;2.03;;
12925;SDS011;6529;50.566;9.774;2022-07-12T04:33:41;2.37;;;1.90;;
12925;SDS011;6529;50.566;9.774;2022-07-12T04:36:06;2.30;;;2.10;;
12925;SDS011;6529;50.566;9.774;2022-07-12T04:38:32;2.67;;;2.20;;
12925;SDS011;6529;50.566;9.774;2022-07-12T04:40:57;2.63;;;2.43;;
12925;SDS011;6529;50.566;9.774;2022-07-12T04:43:31;3.17;;;2.23;;
12925;SDS011;6529;50.566;9.774;2022-07-12T04:46:04;2.87;;;2.50;;
12925;SDS011;6529;50.566;9.774;2022-07-12T04:48:34;2.47;;;2.20;;
12925;SDS011;6529;50.566;9.774;2022-07-12T04:51:00;2.93;;;2.67;;
12925;SDS011;6529;50.566;9.774;2022-07-12T04:53:25;2.57;;;2.37;;
12925;SDS011;6529;50.566;9.774;2022-07-12T04:55:51;2.93;;;2.30;;
12925;SDS011;6529;50.566;9.774;2022-07-12T04:58:19;2.80;;;2.43;;
12925;SDS011;6529;50.566;9.774;2022-07-12T05:00:44;3.27;;;2.40;;
12925;SDS011;6529;50.566;9.774;2022-07-12T05:03:10;3.27;;;2.63;;
12925;SDS011;6529;50.566;9.774;2022-07-12T05:05:36;3.40;;;3.20;;
12925;SDS011;6529;50.566;9.774;2022-07-12T05:08:01;3.03;;;2.80;;
12925;SDS011;6529;50.566;9.774;2022-07-12T05:10:27;2.90;;;2.57;;
12925;SDS011;6529;50.566;9.774;2022-07-12T05:12:52;3.20;;;2.90;;
12925;SDS011;6529;50.566;9.774;2022-07-12T05:15:18;3.00;;;2.80;;
12925;SDS011;6529;50.566;9.774;2022-07-12T05:17:44;3.03;;;2.70;;
12925;SDS011;6529;50.566;9.774;2022-07-12T05:20:09;3.57;;;3.27;;
12925;SDS011;6529;50.566;9.774;2022-07-12T05:22:35;3.37;;;2.90;;
12925;SDS011;6529;50.566;9.774;2022-07-12T05:25:01;4.13;;;3.10;;
12925;SDS011;6529;50.566;9.774;2022-07-12T05:27:26;3.07;;;2.87;;
12925;SDS011;6529;50.566;9.774;2022-07-12T05:29:52;3.57;;;3.00;;
12925;SDS011;6529;50.566;9.774;2022-07-12T05:32:17;3.43;;;3.13;;
12925;SDS011;6529;50.566;9.774;2022-07-12T05:34:43;3.43;;;3.13;;
12925;SDS011;6529;50.566;9.774;2022-07-12T05:37:08;3.30;;;3.00;;
12925;SDS011;6529;50.566;9.774;2022-07-12T05:39:34;3.30;;;3.00;;
12925;SDS011;6529;50.566;9.774;2022-07-12T05:42:00;3.53;;;2.97;;
12925;SDS011;6529;50.566;9.774;2022-07-12T05:44:26;4.50;;;3.10;;
12925;SDS011;6529;50.566;9.774;2022-07-12T05:46:51;3.40;;;3.20;;
12925;SDS011;6529;50.566;9.774;2022-07-12T05:49:17;3.67;;;3.27;;
12925;SDS011;6529;50.566;9.774;2022-07-12T05:51:43;3.80;;;3.40;;
12925;SDS011;6529;50.566;9.774;2022-07-12T05:54:27;3.33;;;3.03;;
12925;SDS011;6529;50.566;9.774;2022-07-12T05:56:52;3.73;;;3.40;;
12925;SDS011;6529;50.566;9.774;2022-07-12T05:59:18;4.07;;;3.67;;
12925;SDS011;6529;50.566;9.774;2022-07-12T06:01:43;3.50;;;3.20;;
12925;SDS011;6529;50.566;9.774;2022-07-12T06:04:09;4.03;;;3.57;;
12925;SDS011;6529;50.566;9.774;2022-07-12T06:06:35;4.00;;;3.60;;
12925;SDS011;6529;50.566;9.774;2022-07-12T06:09:00;3.90;;;3.50;;
12925;SDS011;6529;50.566;9.774;2022-07-12T06:11:26;4.00;;;3.40;;
12925;SDS011;6529;50.566;9.774;2022-07-12T06:13:52;3.60;;;3.30;;
12925;SDS011;6529;50.566;9.774;2022-07-12T06:16:18;4.00;;;3.70;;
12925;SDS011;6529;50.566;9.774;2022-07-12T06:18:43;4.43;;;4.03;;
12925;SDS011;6529;50.566;9.774;2022-07-12T06:21:09;4.83;;;3.57;;
12925;SDS011;6529;50.566;9.774;2022-07-12T06:23:35;4.30;;;3.90;;
12925;SDS011;6529;50.566;9.774;2022-07-12T06:26:00;3.73;;;3.20;;
12925;SDS011;6529;50.566;9.774;2022-07-12T06:28:27;3.70;;;3.40;;
12925;SDS011;6529;50.566;9.774;2022-07-12T06:30:52;3.60;;;3.30;;
12925;SDS011;6529;50.566;9.774;2022-07-12T06:33:18;3.60;;;3.30;;
12925;SDS011;6529;50.566;9.774;2022-07-12T06:35:43;3.97;;;3.63;;
12925;SDS011;6529;50.566;9.774;2022-07-12T06:38:09;3.90;;;3.60;;
12925;SDS011;6529;50.566;9.774;2022-07-12T06:40:35;3.73;;;3.43;;
12925;SDS011;6529;50.566;9.774;2022-07-12T06:43:00;3.90;;;3.60;;
12925;SDS011;6529;50.566;9.774;2022-07-12T06:45:26;3.77;;;3.47;;
12925;SDS011;6529;50.566;9.774;2022-07-12T06:47:52;3.77;;;3.17;;
12925;SDS011;6529;50.566;9.774;2022-07-12T06:50:18;4.63;;;3.30;;
12925;SDS011;6529;50.566;9.774;2022-07-12T06:52:43;3.40;;;3.10;;
12925;SDS011;6529;50.566;9.774;2022-07-12T06:55:09;4.17;;;3.50;;
12925;SDS011;6529;50.566;9.774;2022-07-12T06:57:35;3.50;;;3.20;;
12925;SDS011;6529;50.566;9.774;2022-07-12T07:00:02;4.10;;;3.70;;
12925;SDS011;6529;50.566;9.774;2022-07-12T07:02:31;4.83;;;3.80;;
12925;SDS011;6529;50.566;9.774;2022-07-12T07:07:48;3.60;;;2.77;;
12925;SDS011;6529;50.566;9.774;2022-07-12T07:10:14;3.80;;;3.40;;
12925;SDS011;6529;50.566;9.774;2022-07-12T07:12:39;3.40;;;3.10;;
12925;SDS011;6529;50.566;9.774;2022-07-12T07:15:06;3.27;;;3.07;;
12925;SDS011;6529;50.566;9.774;2022-07-12T07:17:32;2.50;;;2.30;;
12925;SDS011;6529;50.566;9.774;2022-07-12T07:19:58;3.90;;;3.60;;
12925;SDS011;6529;50.566;9.774;2022-07-12T07:22:24;3.40;;;3.10;;
12925;SDS011;6529;50.566;9.774;2022-07-12T07:24:49;3.67;;;3.37;;
12925;SDS011;6529;50.566;9.774;2022-07-12T07:27:15;3.57;;;3.27;;
12925;SDS011;6529;50.566;9.774;2022-07-12T07:29:40;3.80;;;3.50;;
12925;SDS011;6529;50.566;9.774;2022-07-12T07:32:24;3.37;;;3.07;;
12925;SDS011;6529;50.566;9.774;2022-07-12T07:34:50;2.67;;;2.47;;
12925;SDS011;6529;50.566;9.774;2022-07-12T07:37:16;3.80;;;2.83;;
12925;SDS011;6529;50.566;9.774;2022-07-12T07:39:41;3.30;;;3.00;;
12925;SDS011;6529;50.566;9.774;2022-07-12T07:42:08;2.60;;;2.40;;
12925;SDS011;6529;50.566;9.774;2022-07-12T07:44:33;2.90;;;2.70;;
12925;SDS011;6529;50.566;9.774;2022-07-12T07:46:59;2.93;;;2.63;;
12925;SDS011;6529;50.566;9.774;2022-07-12T07:49:24;2.27;;;2.10;;
12925;SDS011;6529;50.566;9.774;2022-07-12T07:51:50;3.77;;;2.30;;
12925;SDS011;6529;50.566;9.774;2022-07-12T07:54:16;2.27;;;2.07;;
12925;SDS011;6529;50.566;9.774;2022-07-12T07:56:41;2.13;;;2.03;;
12925;SDS011;6529;50.566;9.774;2022-07-12T07:59:07;2.13;;;1.93;;
12925;SDS011;6529;50.566;9.774;2022-07-12T08:01:33;2.10;;;1.90;;
12925;SDS011;6529;50.566;9.774;2022-07-12T08:04:11;2.00;;;1.90;;
12925;SDS011;6529;50.566;9.774;2022-07-12T08:06:37;2.30;;;2.00;;
12925;SDS011;6529;50.566;9.774;2022-07-12T08:09:03;2.25;;;2.08;;
12925;SDS011;6529;50.566;9.774;2022-07-12T08:11:30;2.60;;;2.40;;
12925;SDS011;6529;50.566;9.774;2022-07-12T08:13:56;3.10;;;2.80;;
12925;SDS011;6529;50.566;9.774;2022-07-12T08:16:22;2.60;;;2.40;;
12925;SDS011;6529;50.566;9.774;2022-07-12T08:18:47;1.80;;;1.70;;
12925;SDS011;6529;50.566;9.774;2022-07-12T08:21:13;1.77;;;1.67;;
12925;SDS011;6529;50.566;9.774;2022-07-12T08:23:39;1.98;;;1.88;;
12925;SDS011;6529;50.566;9.774;2022-07-12T08:26:04;1.80;;;1.70;;
12925;SDS011;6529;50.566;9.774;2022-07-12T08:28:30;1.58;;;1.48;;
12925;SDS011;6529;50.566;9.774;2022-07-12T08:30:55;1.50;;;1.40;;
12925;SDS011;6529;50.566;9.774;2022-07-12T08:33:21;2.60;;;1.33;;
12925;SDS011;6529;50.566;9.774;2022-07-12T08:35:47;1.80;;;1.52;;
12925;SDS011;6529;50.566;9.774;2022-07-12T08:38:12;1.60;;;1.50;;
12925;SDS011;6529;50.566;9.774;2022-07-12T08:40:40;1.50;;;1.40;;
12925;SDS011;6529;50.566;9.774;2022-07-12T08:43:06;1.52;;;1.10;;
12925;SDS011;6529;50.566;9.774;2022-07-12T08:45:32;1.27;;;1.17;;
12925;SDS011;6529;50.566;9.774;2022-07-12T08:47:57;1.27;;;1.17;;
12925;SDS011;6529;50.566;9.774;2022-07-12T08:50:23;1.30;;;1.20;;
12925;SDS011;6529;50.566;9.774;2022-07-12T08:52:53;1.23;;;1.13;;
12925;SDS011;6529;50.566;9.774;2022-07-12T08:55:27;1.58;;;1.48;;
12925;SDS011;6529;50.566;9.774;2022-07-12T08:57:55;1.35;;;1.25;;
12925;SDS011;6529;50.566;9.774;2022-07-12T09:00:22;1.20;;;1.10;;
12925;SDS011;6529;50.566;9.774;2022-07-12T09:02:52;1.40;;;1.30;;
12925;SDS011;6529;50.566;9.774;2022-07-12T09:05:20;1.25;;;1.15;;
12925;SDS011;6529;50.566;9.774;2022-07-12T09:07:49;1.20;;;1.10;;
12925;SDS011;6529;50.566;9.774;2022-07-12T09:10:17;1.80;;;1.30;;
12925;SDS011;6529;50.566;9.774;2022-07-12T09:12:44;1.35;;;1.25;;
12925;SDS011;6529;50.566;9.774;2022-07-12T09:15:31;1.30;;;1.20;;
12925;SDS011;6529;50.566;9.774;2022-07-12T09:18:03;1.10;;;1.10;;
12925;SDS011;6529;50.566;9.774;2022-07-12T09:23:00;1.30;;;1.20;;
12925;SDS011;6529;50.566;9.774;2022-07-12T09:25:29;1.50;;;1.20;;
12925;SDS011;6529;50.566;9.774;2022-07-12T09:27:57;1.33;;;1.23;;
12925;SDS011;6529;50.566;9.774;2022-07-12T09:30:24;1.13;;;1.13;;
12925;SDS011;6529;50.566;9.774;2022-07-12T09:33:02;1.13;;;1.10;;
12925;SDS011;6529;50.566;9.774;2022-07-12T09:41:02;1.25;;;1.15;;
12925;SDS011;6529;50.566;9.774;2022-07-12T09:43:28;1.20;;;1.10;;
12925;SDS011;6529;50.566;9.774;2022-07-12T09:45:55;1.00;;;1.00;;
12925;SDS011;6529;50.566;9.774;2022-07-12T09:48:21;1.15;;;1.08;;
12925;SDS011;6529;50.566;9.774;2022-07-12T09:50:48;1.10;;;1.00;;
12925;SDS011;6529;50.566;9.774;2022-07-12T09:54:00;1.40;;;1.10;;
12925;SDS011;6529;50.566;9.774;2022-07-12T09:56:07;1.10;;;1.10;;
12925;SDS011;6529;50.566;9.774;2022-07-12T09:58:38;1.20;;;1.10;;
12925;SDS011;6529;50.566;9.774;2022-07-12T10:01:10;1.05;;;0.95;;
12925;SDS011;6529;50.566;9.774;2022-07-12T10:03:37;1.40;;;1.30;;
12925;SDS011;6529;50.566;9.774;2022-07-12T10:06:05;1.10;;;1.00;;
12925;SDS011;6529;50.566;9.774;2022-07-12T10:08:32;2.00;;;1.10;;
12925;SDS011;6529;50.566;9.774;2022-07-12T10:10:59;1.27;;;1.17;;
12925;SDS011;6529;50.566;9.774;2022-07-12T10:13:25;0.98;;;0.98;;
12925;SDS011;6529;50.566;9.774;2022-07-12T10:15:51;1.33;;;1.20;;
12925;SDS011;6529;50.566;9.774;2022-07-12T10:18:23;1.42;;;1.08;;
12925;SDS011;6529;50.566;9.774;2022-07-12T10:20:49;1.13;;;0.95;;
12925;SDS011;6529;50.566;9.774;2022-07-12T10:25:59;1.08;;;0.98;;
12925;SDS011;6529;50.566;9.774;2022-07-12T10:29:04;1.20;;;1.10;;
12925;SDS011;6529;50.566;9.774;2022-07-12T10:31:35;1.02;;;1.02;;
12925;SDS011;6529;50.566;9.774;2022-07-12T10:34:09;1.10;;;1.00;;
12925;SDS011;6529;50.566;9.774;2022-07-12T10:37:18;1.30;;;1.20;;
12925;SDS011;6529;50.566;9.774;2022-07-12T10:39:32;1.20;;;1.10;;
12925;SDS011;6529;50.566;9.774;2022-07-12T10:44:37;0.95;;;0.95;;
12925;SDS011;6529;50.566;9.774;2022-07-12T10:47:04;1.08;;;1.00;;
12925;SDS011;6529;50.566;9.774;2022-07-12T10:49:31;1.08;;;1.00;;
12925;SDS011;6529;50.566;9.774;2022-07-12T10:57:39;1.50;;;1.30;;
12925;SDS011;6529;50.566;9.774;2022-07-12T11:00:07;1.10;;;1.00;;
12925;SDS011;6529;50.566;9.774;2022-07-12T11:02:34;1.08;;;0.95;;
12925;SDS011;6529;50.566;9.774;2022-07-12T11:05:00;0.93;;;0.93;;
12925;SDS011;6529;50.566;9.774;2022-07-12T11:07:26;1.00;;;1.00;;
12925;SDS011;6529;50.566;9.774;2022-07-12T11:09:53;1.15;;;1.05;;
12925;SDS011;6529;50.566;9.774;2022-07-12T11:12:19;1.20;;;1.10;;
12925;SDS011;6529;50.566;9.774;2022-07-12T11:14:45;1.08;;;1.08;;
12925;SDS011;6529;50.566;9.774;2022-07-12T11:17:11;1.10;;;1.00;;
12925;SDS011;6529;50.566;9.774;2022-07-12T11:19:37;1.05;;;0.98;;
12925;SDS011;6529;50.566;9.774;2022-07-12T11:22:03;1.10;;;1.10;;
12925;SDS011;6529;50.566;9.774;2022-07-12T11:24:33;0.90;;;0.90;;
12925;SDS011;6529;50.566;9.774;2022-07-12T11:27:02;0.85;;;0.85;;
12925;SDS011;6529;50.566;9.774;2022-07-12T11:29:29;1.10;;;1.00;;
12925;SDS011;6529;50.566;9.774;2022-07-12T11:32:02;1.33;;;1.23;;
12925;SDS011;6529;50.566;9.774;2022-07-12T11:34:31;1.13;;;1.00;;
12925;SDS011;6529;50.566;9.774;2022-07-12T11:36:57;0.90;;;0.90;;
12925;SDS011;6529;50.566;9.774;2022-07-12T11:42:01;1.45;;;0.90;;
12925;SDS011;6529;50.566;9.774;2022-07-12T11:47:13;1.20;;;1.00;;
12925;SDS011;6529;50.566;9.774;2022-07-12T11:49:43;1.95;;;0.80;;
12925;SDS011;6529;50.566;9.774;2022-07-12T11:52:14;1.63;;;1.08;;
12925;SDS011;6529;50.566;9.774;2022-07-12T11:54:42;0.90;;;0.90;;
12925;SDS011;6529;50.566;9.774;2022-07-12T11:57:08;1.00;;;1.00;;
12925;SDS011;6529;50.566;9.774;2022-07-12T11:59:35;0.80;;;0.80;;
12925;SDS011;6529;50.566;9.774;2022-07-12T12:02:05;0.80;;;0.80;;
12925;SDS011;6529;50.566;9.774;2022-07-12T12:04:32;1.00;;;0.90;;
12925;SDS011;6529;50.566;9.774;2022-07-12T12:10:10;0.70;;;0.70;;
12925;SDS011;6529;50.566;9.774;2022-07-12T12:12:45;1.08;;;0.90;;
12925;SDS011;6529;50.566;9.774;2022-07-12T12:15:21;0.90;;;0.90;;
12925;SDS011;6529;50.566;9.774;2022-07-12T12:21:13;0.90;;;0.90;;
12925;SDS011;6529;50.566;9.774;2022-07-12T12:23:39;0.70;;;0.70;;
12925;SDS011;6529;50.566;9.774;2022-07-12T12:31:11;1.15;;;0.82;;
12925;SDS011;6529;50.566;9.774;2022-07-12T12:33:56;0.85;;;0.85;;
12925;SDS011;6529;50.566;9.774;2022-07-12T12:36:22;0.85;;;0.85;;
12925;SDS011;6529;50.566;9.774;2022-07-12T12:38:53;0.90;;;0.90;;
12925;SDS011;6529;50.566;9.774;2022-07-12T12:41:21;0.82;;;0.82;;
12925;SDS011;6529;50.566;9.774;2022-07-12T12:43:48;0.90;;;0.90;;
12925;SDS011;6529;50.566;9.774;2022-07-12T12:46:22;0.90;;;0.90;;
12925;SDS011;6529;50.566;9.774;2022-07-12T12:48:47;0.80;;;0.80;;
12925;SDS011;6529;50.566;9.774;2022-07-12T12:51:13;1.20;;;0.80;;
12925;SDS011;6529;50.566;9.774;2022-07-12T12:53:40;0.82;;;0.82;;
12925;SDS011;6529;50.566;9.774;2022-07-12T12:56:08;0.90;;;0.90;;
12925;SDS011;6529;50.566;9.774;2022-07-12T12:58:35;0.70;;;0.70;;
12925;SDS011;6529;50.566;9.774;2022-07-12T13:01:02;0.80;;;0.80;;
12925;SDS011;6529;50.566;9.774;2022-07-12T13:03:28;1.40;;;0.82;;
12925;SDS011;6529;50.566;9.774;2022-07-12T13:05:54;0.88;;;0.88;;
12925;SDS011;6529;50.566;9.774;2022-07-12T13:08:19;0.70;;;0.70;;
12925;SDS011;6529;50.566;9.774;2022-07-12T13:10:46;0.70;;;0.70;;
12925;SDS011;6529;50.566;9.774;2022-07-12T13:13:12;0.80;;;0.70;;
12925;SDS011;6529;50.566;9.774;2022-07-12T13:15:38;0.80;;;0.80;;
12925;SDS011;6529;50.566;9.774;2022-07-12T13:20:52;2.75;;;0.90;;
12925;SDS011;6529;50.566;9.774;2022-07-12T13:23:18;3.70;;;0.98;;
12925;SDS011;6529;50.566;9.774;2022-07-12T13:25:44;0.75;;;0.75;;
12925;SDS011;6529;50.566;9.774;2022-07-12T13:28:09;0.75;;;0.75;;
12925;SDS011;6529;50.566;9.774;2022-07-12T13:30:36;0.77;;;0.77;;
12925;SDS011;6529;50.566;9.774;2022-07-12T13:33:02;0.80;;;0.80;;
12925;SDS011;6529;50.566;9.774;2022-07-12T13:35:28;0.88;;;0.70;;
12925;SDS011;6529;50.566;9.774;2022-07-12T13:37:54;0.80;;;0.80;;
12925;SDS011;6529;50.566;9.774;2022-07-12T13:40:21;0.88;;;0.80;;
12925;SDS011;6529;50.566;9.774;2022-07-12T13:42:48;0.70;;;0.70;;
12925;SDS011;6529;50.566;9.774;2022-07-12T13:45:22;0.93;;;0.90;;
12925;SDS011;6529;50.566;9.774;2022-07-12T13:47:48;0.70;;;0.70;;
12925;SDS011;6529;50.566;9.774;2022-07-12T13:50:15;1.10;;;0.93;;
12925;SDS011;6529;50.566;9.774;2022-07-12T13:52:42;0.73;;;0.73;;
12925;SDS011;6529;50.566;9.774;2022-07-12T13:55:09;0.70;;;0.70;;
12925;SDS011;6529;50.566;9.774;2022-07-12T13:57:36;0.80;;;0.80;;
12925;SDS011;6529;50.566;9.774;2022-07-12T14:00:03;0.60;;;0.60;;
12925;SDS011;6529;50.566;9.774;2022-07-12T14:02:47;0.90;;;0.57;;
12925;SDS011;6529;50.566;9.774;2022-07-12T14:05:13;0.80;;;0.80;;
12925;SDS011;6529;50.566;9.774;2022-07-12T14:07:40;0.73;;;0.73;;
12925;SDS011;6529;50.566;9.774;2022-07-12T14:10:07;0.93;;;0.70;;
12925;SDS011;6529;50.566;9.774;2022-07-12T14:12:35;1.02;;;0.85;;
12925;SDS011;6529;50.566;9.774;2022-07-12T14:15:01;0.68;;;0.60;;
12925;SDS011;6529;50.566;9.774;2022-07-12T14:20:24;0.73;;;0.73;;
12925;SDS011;6529;50.566;9.774;2022-07-12T14:22:49;0.80;;;0.80;;
12925;SDS011;6529;50.566;9.774;2022-07-12T14:25:15;1.10;;;0.70;;
12925;SDS011;6529;50.566;9.774;2022-07-12T14:27:41;0.70;;;0.70;;
12925;SDS011;6529;50.566;9.774;2022-07-12T14:30:08;0.60;;;0.60;;
12925;SDS011;6529;50.566;9.774;2022-07-12T14:32:36;0.60;;;0.60;;
12925;SDS011;6529;50.566;9.774;2022-07-12T14:35:03;1.10;;;0.75;;
12925;SDS011;6529;50.566;9.774;2022-07-12T14:37:30;0.60;;;0.60;;
12925;SDS011;6529;50.566;9.774;2022-07-12T14:39:56;1.65;;;0.80;;
12925;SDS011;6529;50.566;9.774;2022-07-12T14:42:22;1.08;;;0.70;;
12925;SDS011;6529;50.566;9.774;2022-07-12T14:44:47;0.55;;;0.55;;
12925;SDS011;6529;50.566;9.774;2022-07-12T14:47:13;0.70;;;0.70;;
12925;SDS011;6529;50.566;9.774;2022-07-12T14:49:39;0.70;;;0.70;;
12925;SDS011;6529;50.566;9.774;2022-07-12T14:52:05;1.17;;;0.70;;
12925;SDS011;6529;50.566;9.774;2022-07-12T14:54:31;0.73;;;0.73;;
12925;SDS011;6529;50.566;9.774;2022-07-12T14:56:58;0.60;;;0.60;;
12925;SDS011;6529;50.566;9.774;2022-07-12T14:59:23;0.70;;;0.60;;
12925;SDS011;6529;50.566;9.774;2022-07-12T15:01:49;0.60;;;0.60;;
12925;SDS011;6529;50.566;9.774;2022-07-12T15:04:16;0.50;;;0.50;;
12925;SDS011;6529;50.566;9.774;2022-07-12T15:06:41;1.52;;;0.65;;
12925;SDS011;6529;50.566;9.774;2022-07-12T15:09:07;0.60;;;0.60;;
12925;SDS011;6529;50.566;9.774;2022-07-12T15:11:33;0.70;;;0.70;;
12925;SDS011;6529;50.566;9.774;2022-07-12T15:13:59;1.58;;;0.70;;
12925;SDS011;6529;50.566;9.774;2022-07-12T15:16:33;1.92;;;0.80;;
12925;SDS011;6529;50.566;9.774;2022-07-12T15:18:58;0.68;;;0.68;;
12925;SDS011;6529;50.566;9.774;2022-07-12T15:21:24;0.55;;;0.55;;
12925;SDS011;6529;50.566;9.774;2022-07-12T15:23:50;0.60;;;0.60;;
12925;SDS011;6529;50.566;9.774;2022-07-12T15:26:16;0.80;;;0.80;;
12925;SDS011;6529;50.566;9.774;2022-07-12T15:28:55;0.73;;;0.73;;
12925;SDS011;6529;50.566;9.774;2022-07-12T15:31:23;0.80;;;0.80;;
12925;SDS011;6529;50.566;9.774;2022-07-12T15:33:49;1.00;;;0.68;;
12925;SDS011;6529;50.566;9.774;2022-07-12T15:36:15;1.35;;;0.75;;
12925;SDS011;6529;50.566;9.774;2022-07-12T15:38:41;0.70;;;0.70;;
12925;SDS011;6529;50.566;9.774;2022-07-12T15:41:08;0.70;;;0.70;;
12925;SDS011;6529;50.566;9.774;2022-07-12T15:43:35;0.80;;;0.80;;
12925;SDS011;6529;50.566;9.774;2022-07-12T15:46:00;0.80;;;0.70;;
12925;SDS011;6529;50.566;9.774;2022-07-12T15:48:26;2.05;;;0.80;;
12925;SDS011;6529;50.566;9.774;2022-07-12T15:50:51;0.80;;;0.80;;
12925;SDS011;6529;50.566;9.774;2022-07-12T15:53:17;0.93;;;0.80;;
12925;SDS011;6529;50.566;9.774;2022-07-12T15:55:53;1.10;;;0.70;;
12925;SDS011;6529;50.566;9.774;2022-07-12T15:58:26;0.63;;;0.63;;